Time,TemperatureF,DewpointF,PressureIn,WindDirection,WindDirectionDegrees,WindSpeedMPH,WindSpeedGustMPH,Humidity,HourlyPrecipIn,Conditions,Clouds,dailyrainin,SoftwareType,DateUTC
2013-01-19 00:03:00,17.3,8.5,30.32,NNE,24,3.0,3.0,68,0.00,,,0.00,Wunderground v.1.13,2013-01-19 05:03:00,
2013-01-19 00:04:00,17.3,8.5,30.32,NNE,24,0.0,3.0,68,0.00,,,0.00,Wunderground v.1.13,2013-01-19 05:04:00,
2013-01-19 00:05:00,17.3,8.5,30.32,NNE,24,1.0,2.0,68,0.00,,,0.00,Wunderground v.1.13,2013-01-19 05:05:00,
2013-01-19 00:06:00,17.3,8.5,30.32,ESE,123,2.0,2.0,68,0.00,,,0.00,Wunderground v.1.13,2013-01-19 05:06:00,
2013-01-19 00:11:00,17.5,8.4,30.32,SE,128,0.0,1.0,67,0.00,,,0.00,Wunderground v.1.13,2013-01-19 05:11:00,
2013-01-19 00:17:00,17.6,8.5,30.31,ENE,75,0.0,4.0,67,0.00,,,0.00,Wunderground v.1.13,2013-01-19 05:17:00,
2013-01-19 00:23:00,17.7,8.6,30.31,NNW,336,5.0,5.0,67,0.00,,,0.00,Wunderground v.1.13,2013-01-19 05:23:00,
2013-01-19 00:29:00,17.8,8.4,30.31,ENE,76,3.0,3.0,66,0.00,,,0.00,Wunderground v.1.13,2013-01-19 05:29:00,
2013-01-19 00:35:00,17.9,8.8,30.30,NE,40,0.0,2.0,67,0.00,,,0.00,Wunderground v.1.13,2013-01-19 05:35:00,
2013-01-19 00:40:00,18.0,8.9,30.30,East,84,1.0,2.0,67,0.00,,,0.00,Wunderground v.1.13,2013-01-19 05:40:00,
2013-01-19 00:46:00,18.1,9.0,30.30,ESE,121,0.0,2.0,67,0.00,,,0.00,Wunderground v.1.13,2013-01-19 05:46:00,
2013-01-19 00:52:00,18.2,9.4,30.30,East,91,0.0,1.0,68,0.00,,,0.00,Wunderground v.1.13,2013-01-19 05:52:00,
2013-01-19 00:57:00,18.3,9.2,30.30,ESE,105,0.0,1.0,67,0.00,,,0.00,Wunderground v.1.13,2013-01-19 05:57:00,
2013-01-19 01:02:00,18.5,10.0,30.30,ESE,105,0.0,1.0,69,0.00,,,0.00,Wunderground v.1.13,2013-01-19 06:02:00,
2013-01-19 01:08:00,18.6,9.5,30.30,SE,136,1.0,2.0,67,0.00,,,0.00,Wunderground v.1.13,2013-01-19 06:08:00,
2013-01-19 01:14:00,18.7,10.5,30.30,SE,137,1.0,1.0,70,0.00,,,0.00,Wunderground v.1.13,2013-01-19 06:14:00,
2013-01-19 01:20:00,18.5,10.3,30.30,SE,137,0.0,1.0,70,0.00,,,0.00,Wunderground v.1.13,2013-01-19 06:20:00,
2013-01-19 01:26:00,18.5,10.3,30.30,SE,137,0.0,0.0,70,0.00,,,0.00,Wunderground v.1.13,2013-01-19 06:26:00,
2013-01-19 01:31:00,18.6,10.4,30.30,SE,137,0.0,0.0,70,0.00,,,0.00,Wunderground v.1.13,2013-01-19 06:31:00,
2013-01-19 01:37:00,18.8,11.6,30.30,SE,137,1.0,1.0,73,0.00,,,0.00,Wunderground v.1.13,2013-01-19 06:37:00,
2013-01-19 01:42:00,18.7,11.5,30.30,SE,137,1.0,1.0,73,0.00,,,0.00,Wunderground v.1.13,2013-01-19 06:42:00,
2013-01-19 01:48:00,18.6,10.8,30.30,SE,137,0.0,0.0,71,0.00,,,0.00,Wunderground v.1.13,2013-01-19 06:48:00,
2013-01-19 01:53:00,18.5,11.0,30.30,SE,137,1.0,1.0,72,0.00,,,0.00,Wunderground v.1.13,2013-01-19 06:53:00,
2013-01-19 01:58:00,18.5,11.3,30.30,SE,137,1.0,1.0,73,0.00,,,0.00,Wunderground v.1.13,2013-01-19 06:58:00,
2013-01-19 02:04:00,18.5,11.6,30.30,SE,137,0.0,1.0,74,0.00,,,0.00,Wunderground v.1.13,2013-01-19 07:04:00,
2013-01-19 02:09:00,18.4,11.2,30.30,SE,137,0.0,1.0,73,0.00,,,0.00,Wunderground v.1.13,2013-01-19 07:09:00,
2013-01-19 02:14:00,18.5,11.3,30.30,SE,137,0.0,0.0,73,0.00,,,0.00,Wunderground v.1.13,2013-01-19 07:14:00,
2013-01-19 02:19:00,18.8,12.2,30.29,SE,137,0.0,0.0,75,0.00,,,0.00,Wunderground v.1.13,2013-01-19 07:19:00,
2013-01-19 02:24:00,19.0,12.1,30.29,SE,137,0.0,0.0,74,0.00,,,0.00,Wunderground v.1.13,2013-01-19 07:24:00,
2013-01-19 02:29:00,19.2,12.3,30.28,SE,137,1.0,1.0,74,0.00,,,0.00,Wunderground v.1.13,2013-01-19 07:29:00,
2013-01-19 02:34:00,19.3,12.4,30.29,SSE,150,1.0,1.0,74,0.00,,,0.00,Wunderground v.1.13,2013-01-19 07:34:00,
2013-01-19 02:39:00,19.1,12.5,30.28,SSW,202,0.0,1.0,75,0.00,,,0.00,Wunderground v.1.13,2013-01-19 07:39:00,
2013-01-19 02:45:00,19.0,12.4,30.28,SSW,202,0.0,1.0,75,0.00,,,0.00,Wunderground v.1.13,2013-01-19 07:45:00,
2013-01-19 02:49:00,18.9,12.6,30.28,SSW,202,0.0,0.0,76,0.00,,,0.00,Wunderground v.1.13,2013-01-19 07:49:00,
2013-01-19 02:55:00,18.8,12.2,30.27,SSW,202,0.0,2.0,75,0.00,,,0.00,Wunderground v.1.13,2013-01-19 07:55:00,
2013-01-19 03:00:00,18.8,12.5,30.27,SSW,202,0.0,0.0,76,0.00,,,0.00,Wunderground v.1.13,2013-01-19 08:00:00,
2013-01-19 03:05:00,18.8,12.5,30.27,SSW,202,0.0,0.0,76,0.00,,,0.00,Wunderground v.1.13,2013-01-19 08:05:00,
2013-01-19 03:10:00,18.9,12.6,30.26,SSW,202,0.0,0.0,76,0.00,,,0.00,Wunderground v.1.13,2013-01-19 08:10:00,
2013-01-19 03:15:00,18.8,12.2,30.26,SSW,202,0.0,0.0,75,0.00,,,0.00,Wunderground v.1.13,2013-01-19 08:15:00,
2013-01-19 03:20:00,18.6,12.3,30.26,SSW,202,1.0,2.0,76,0.00,,,0.00,Wunderground v.1.13,2013-01-19 08:20:00,
2013-01-19 03:26:00,18.6,12.9,30.25,SSW,202,0.0,0.0,78,0.00,,,0.00,Wunderground v.1.13,2013-01-19 08:26:00,
2013-01-19 03:31:00,18.5,12.5,30.26,SSW,202,0.0,0.0,77,0.00,,,0.00,Wunderground v.1.13,2013-01-19 08:31:00,
2013-01-19 03:36:00,18.5,13.1,30.26,SSW,202,0.0,2.0,79,0.00,,,0.00,Wunderground v.1.13,2013-01-19 08:36:00,
2013-01-19 03:41:00,18.4,12.7,30.25,SSW,202,0.0,0.0,78,0.00,,,0.00,Wunderground v.1.13,2013-01-19 08:41:00,
2013-01-19 03:46:00,18.3,12.9,30.25,SSW,202,0.0,0.0,79,0.00,,,0.00,Wunderground v.1.13,2013-01-19 08:46:00,
2013-01-19 03:51:00,18.2,12.5,30.25,SSW,202,0.0,2.0,78,0.00,,,0.00,Wunderground v.1.13,2013-01-19 08:51:00,
2013-01-19 03:56:00,18.3,12.9,30.24,SSW,202,0.0,2.0,79,0.00,,,0.00,Wunderground v.1.13,2013-01-19 08:56:00,
2013-01-19 04:01:00,18.3,12.6,30.23,SSW,202,0.0,0.0,78,0.00,,,0.00,Wunderground v.1.13,2013-01-19 09:01:00,
2013-01-19 04:06:00,18.2,12.8,30.23,SSW,202,0.0,0.0,79,0.00,,,0.00,Wunderground v.1.13,2013-01-19 09:06:00,
2013-01-19 04:11:00,18.0,12.9,30.23,SSW,202,0.0,2.0,80,0.00,,,0.00,Wunderground v.1.13,2013-01-19 09:11:00,
2013-01-19 04:16:00,17.7,12.3,30.22,SSW,202,0.0,1.0,79,0.00,,,0.00,Wunderground v.1.13,2013-01-19 09:16:00,
2013-01-19 04:21:00,17.5,12.4,30.23,SSW,202,0.0,0.0,80,0.00,,,0.00,Wunderground v.1.13,2013-01-19 09:21:00,
2013-01-19 04:27:00,17.5,12.7,30.23,SSW,202,0.0,1.0,81,0.00,,,0.00,Wunderground v.1.13,2013-01-19 09:27:00,
2013-01-19 04:32:00,17.6,12.8,30.22,SSW,202,0.0,0.0,81,0.00,,,0.00,Wunderground v.1.13,2013-01-19 09:32:00,
2013-01-19 04:37:00,17.7,12.9,30.22,SSW,202,0.0,1.0,81,0.00,,,0.00,Wunderground v.1.13,2013-01-19 09:37:00,
2013-01-19 04:42:00,17.9,13.3,30.22,SSW,202,0.0,0.0,82,0.00,,,0.00,Wunderground v.1.13,2013-01-19 09:42:00,
2013-01-19 04:47:00,17.8,13.0,30.21,SSW,202,0.0,0.0,81,0.00,,,0.00,Wunderground v.1.13,2013-01-19 09:47:00,
2013-01-19 04:52:00,17.8,13.0,30.21,SSW,202,0.0,0.0,81,0.00,,,0.00,Wunderground v.1.13,2013-01-19 09:52:00,
2013-01-19 04:57:00,17.8,13.0,30.21,SSW,202,0.0,1.0,81,0.00,,,0.00,Wunderground v.1.13,2013-01-19 09:57:00,
2013-01-19 05:02:00,17.9,13.1,30.20,SSW,202,1.0,2.0,81,0.00,,,0.00,Wunderground v.1.13,2013-01-19 10:02:00,
2013-01-19 05:07:00,17.7,12.9,30.20,SSW,202,2.0,2.0,81,0.00,,,0.00,Wunderground v.1.13,2013-01-19 10:07:00,
2013-01-19 05:12:00,17.5,12.7,30.20,SSW,202,2.0,2.0,81,0.00,,,0.00,Wunderground v.1.13,2013-01-19 10:12:00,
2013-01-19 05:18:00,17.4,12.8,30.20,SSW,202,1.0,2.0,82,0.00,,,0.00,Wunderground v.1.13,2013-01-19 10:18:00,
2013-01-19 05:23:00,17.5,13.2,30.20,SSW,202,0.0,1.0,83,0.00,,,0.00,Wunderground v.1.13,2013-01-19 10:23:00,
2013-01-19 05:28:00,17.7,13.1,30.19,SSW,202,0.0,1.0,82,0.00,,,0.00,Wunderground v.1.13,2013-01-19 10:28:00,
2013-01-19 05:33:00,17.7,13.1,30.19,SSW,202,0.0,0.0,82,0.00,,,0.00,Wunderground v.1.13,2013-01-19 10:33:00,
2013-01-19 05:38:00,17.8,13.2,30.19,SE,136,0.0,2.0,82,0.00,,,0.00,Wunderground v.1.13,2013-01-19 10:38:00,
2013-01-19 05:43:00,17.9,13.6,30.20,SE,137,0.0,2.0,83,0.00,,,0.00,Wunderground v.1.13,2013-01-19 10:43:00,
2013-01-19 05:48:00,17.9,13.6,30.19,SSE,153,1.0,2.0,83,0.00,,,0.00,Wunderground v.1.13,2013-01-19 10:48:00,
2013-01-19 05:53:00,17.9,13.6,30.19,SSE,153,0.0,1.0,83,0.00,,,0.00,Wunderground v.1.13,2013-01-19 10:53:00,
2013-01-19 05:58:00,18.0,13.7,30.19,ENE,62,2.0,3.0,83,0.00,,,0.00,Wunderground v.1.13,2013-01-19 10:58:00,
2013-01-19 06:03:00,18.0,13.7,30.19,East,90,2.0,2.0,83,0.00,,,0.00,Wunderground v.1.13,2013-01-19 11:03:00,
2013-01-19 06:09:00,18.2,13.6,30.18,SSW,213,1.0,2.0,82,0.00,,,0.00,Wunderground v.1.13,2013-01-19 11:09:00,
2013-01-19 06:14:00,18.5,13.9,30.19,SW,221,1.0,3.0,82,0.00,,,0.00,Wunderground v.1.13,2013-01-19 11:14:00,
2013-01-19 07:47:00,24.0,16.0,30.16,South,180,2.0,3.0,71,0.00,,,0.00,Wunderground v.1.13,2013-01-19 12:47:00,
2013-01-19 07:48:00,24.0,16.0,30.16,East,101,2.0,3.0,71,0.00,,,0.00,Wunderground v.1.13,2013-01-19 12:48:00,
2013-01-19 07:49:00,24.1,16.1,30.16,East,101,1.0,3.0,71,0.00,,,0.00,Wunderground v.1.13,2013-01-19 12:49:00,
2013-01-19 07:54:00,24.1,16.1,30.16,East,82,7.0,7.0,71,0.00,,,0.00,Wunderground v.1.13,2013-01-19 12:54:00,
2013-01-19 07:59:00,24.0,16.3,30.16,North,9,4.0,8.0,72,0.00,,,0.00,Wunderground v.1.13,2013-01-19 12:59:00,
2013-01-19 08:04:00,23.8,16.1,30.16,ENE,57,1.0,3.0,72,0.00,,,0.00,Wunderground v.1.13,2013-01-19 13:04:00,
2013-01-19 08:09:00,23.9,16.5,30.17,NW,324,3.0,3.0,73,0.00,,,0.00,Wunderground v.1.13,2013-01-19 13:09:00,
2013-01-19 08:14:00,24.6,16.5,30.17,ENE,74,1.0,7.0,71,0.00,,,0.00,Wunderground v.1.13,2013-01-19 13:14:00,
2013-01-19 08:19:00,25.1,17.0,30.16,ESE,112,3.0,3.0,71,0.00,,,0.00,Wunderground v.1.13,2013-01-19 13:19:00,
2013-01-19 08:24:00,25.5,17.1,30.16,NE,36,2.0,3.0,70,0.00,,,0.00,Wunderground v.1.13,2013-01-19 13:24:00,
2013-01-19 08:29:00,25.9,17.1,30.16,East,82,2.0,3.0,69,0.00,,,0.00,Wunderground v.1.13,2013-01-19 13:29:00,
2013-01-19 08:34:00,26.0,16.9,30.15,ESE,103,1.0,3.0,68,0.00,,,0.00,Wunderground v.1.13,2013-01-19 13:34:00,
2013-01-19 08:39:00,26.2,17.4,30.15,NNE,25,0.0,3.0,69,0.00,,,0.00,Wunderground v.1.13,2013-01-19 13:39:00,
2013-01-19 08:45:00,26.5,17.4,30.15,ESE,109,2.0,3.0,68,0.00,,,0.00,Wunderground v.1.13,2013-01-19 13:45:00,
2013-01-19 08:50:00,26.8,17.3,30.15,ENE,75,2.0,11.0,67,0.00,,,0.00,Wunderground v.1.13,2013-01-19 13:50:00,
2013-01-19 08:55:00,27.2,17.7,30.15,NE,46,3.0,6.0,67,0.00,,,0.00,Wunderground v.1.13,2013-01-19 13:55:00,
2013-01-19 09:00:00,27.5,18.0,30.15,ENE,77,3.0,3.0,67,0.00,,,0.00,Wunderground v.1.13,2013-01-19 14:00:00,
2013-01-19 09:07:00,27.7,17.8,30.15,NE,37,1.0,4.0,66,0.00,,,0.00,Wunderground v.1.13,2013-01-19 14:07:00,
2013-01-19 09:12:00,27.9,18.0,30.15,East,88,5.0,10.0,66,0.00,,,0.00,Wunderground v.1.13,2013-01-19 14:12:00,
2013-01-19 09:17:00,28.0,18.1,30.15,East,90,1.0,5.0,66,0.00,,,0.00,Wunderground v.1.13,2013-01-19 14:17:00,
2013-01-19 09:22:00,28.2,18.3,30.15,ESE,121,5.0,5.0,66,0.00,,,0.00,Wunderground v.1.13,2013-01-19 14:22:00,
2013-01-19 09:27:00,28.5,18.2,30.15,East,94,3.0,6.0,65,0.00,,,0.00,Wunderground v.1.13,2013-01-19 14:27:00,
2013-01-19 09:32:00,28.9,18.6,30.15,ESE,105,3.0,5.0,65,0.00,,,0.00,Wunderground v.1.13,2013-01-19 14:32:00,
2013-01-19 09:37:00,29.5,18.8,30.15,ESE,114,0.0,7.0,64,0.00,,,0.00,Wunderground v.1.13,2013-01-19 14:37:00,
2013-01-19 09:42:00,30.2,19.8,30.15,SSE,151,5.0,5.0,65,0.00,,,0.00,Wunderground v.1.13,2013-01-19 14:42:00,
2013-01-19 09:48:00,30.8,19.3,30.14,NE,50,1.0,7.0,62,0.00,,,0.00,Wunderground v.1.13,2013-01-19 14:48:00,
2013-01-19 09:53:00,31.4,19.5,30.15,SE,146,9.0,9.0,61,0.00,,,0.00,Wunderground v.1.13,2013-01-19 14:53:00,
2013-01-19 09:58:00,31.8,19.9,30.15,East,92,5.0,11.0,61,0.00,,,0.00,Wunderground v.1.13,2013-01-19 14:58:00,
2013-01-19 10:03:00,32.2,19.9,30.14,ENE,76,1.0,5.0,60,0.00,,,0.00,Wunderground v.1.13,2013-01-19 15:03:00,
2013-01-19 10:08:00,32.4,20.0,30.14,ENE,74,2.0,4.0,60,0.00,,,0.00,Wunderground v.1.13,2013-01-19 15:08:00,
2013-01-19 10:13:00,32.6,19.8,30.14,WNW,294,4.0,11.0,59,0.00,,,0.00,Wunderground v.1.13,2013-01-19 15:13:00,
2013-01-19 10:19:00,32.8,19.6,30.13,ESE,110,2.0,8.0,58,0.00,,,0.00,Wunderground v.1.13,2013-01-19 15:19:00,
2013-01-19 10:24:00,33.0,19.8,30.13,SSW,194,8.0,11.0,58,0.00,,,0.00,Wunderground v.1.13,2013-01-19 15:24:00,
2013-01-19 10:29:00,33.3,20.1,30.13,North,355,3.0,3.0,58,0.00,,,0.00,Wunderground v.1.13,2013-01-19 15:29:00,
2013-01-19 10:34:00,33.7,19.7,30.12,SE,129,8.0,8.0,56,0.00,,,0.00,Wunderground v.1.13,2013-01-19 15:34:00,
2013-01-19 10:39:00,33.9,19.8,30.12,South,177,8.0,8.0,56,0.00,,,0.00,Wunderground v.1.13,2013-01-19 15:39:00,
2013-01-19 10:44:00,34.1,19.6,30.11,WSW,249,4.0,4.0,55,0.00,,,0.00,Wunderground v.1.13,2013-01-19 15:44:00,
2013-01-19 10:49:00,34.5,20.4,30.11,South,184,2.0,3.0,56,0.00,,,0.00,Wunderground v.1.13,2013-01-19 15:49:00,
2013-01-19 10:54:00,34.8,20.7,30.11,North,9,3.0,4.0,56,0.00,,,0.00,Wunderground v.1.13,2013-01-19 15:54:00,
2013-01-19 10:59:00,35.0,20.4,30.11,ENE,71,0.0,7.0,55,0.00,,,0.00,Wunderground v.1.13,2013-01-19 15:59:00,
2013-01-19 11:04:00,35.4,20.4,30.11,NNE,24,6.0,6.0,54,0.00,,,0.00,Wunderground v.1.13,2013-01-19 16:04:00,
2013-01-19 11:09:00,35.7,21.1,30.10,SSE,150,2.0,3.0,55,0.00,,,0.00,Wunderground v.1.13,2013-01-19 16:09:00,
2013-01-19 11:14:00,35.8,20.3,30.09,SW,225,5.0,7.0,53,0.00,,,0.00,Wunderground v.1.13,2013-01-19 16:14:00,
2013-01-19 11:20:00,35.7,20.2,30.09,NNW,327,2.0,5.0,53,0.00,,,0.00,Wunderground v.1.13,2013-01-19 16:20:00,
2013-01-19 11:25:00,35.7,20.7,30.08,ESE,103,5.0,8.0,54,0.00,,,0.00,Wunderground v.1.13,2013-01-19 16:25:00,
2013-01-19 11:30:00,36.0,20.5,30.08,NW,319,1.0,3.0,53,0.00,,,0.00,Wunderground v.1.13,2013-01-19 16:30:00,
2013-01-19 11:35:00,36.3,21.2,30.07,WNW,287,2.0,7.0,54,0.00,,,0.00,Wunderground v.1.13,2013-01-19 16:35:00,
2013-01-19 11:40:00,36.2,21.6,30.07,WNW,302,2.0,3.0,55,0.00,,,0.00,Wunderground v.1.13,2013-01-19 16:40:00,
2013-01-19 11:45:00,36.1,21.0,30.07,NNE,20,3.0,4.0,54,0.00,,,0.00,Wunderground v.1.13,2013-01-19 16:45:00,
2013-01-19 11:50:00,35.9,20.9,30.06,SE,140,1.0,3.0,54,0.00,,,0.00,Wunderground v.1.13,2013-01-19 16:50:00,
2013-01-19 11:55:00,36.0,20.9,30.06,NE,36,2.0,4.0,54,0.00,,,0.00,Wunderground v.1.13,2013-01-19 16:55:00,
2013-01-19 12:00:00,36.3,20.8,30.06,NNE,32,1.0,3.0,53,0.00,,,0.00,Wunderground v.1.13,2013-01-19 17:00:00,
2013-01-19 12:05:00,36.6,21.1,30.05,SW,216,4.0,4.0,53,0.00,,,0.00,Wunderground v.1.13,2013-01-19 17:05:00,
2013-01-19 12:11:00,37.1,21.5,30.05,NE,43,3.0,4.0,53,0.00,,,0.00,Wunderground v.1.13,2013-01-19 17:11:00,
2013-01-19 12:16:00,37.7,22.1,30.05,NE,39,1.0,7.0,53,0.00,,,0.00,Wunderground v.1.13,2013-01-19 17:16:00,
2013-01-19 12:21:00,37.7,21.2,30.05,NNE,26,3.0,3.0,51,0.00,,,0.00,Wunderground v.1.13,2013-01-19 17:21:00,
2013-01-19 12:27:00,37.8,21.7,30.04,NNW,331,0.0,3.0,52,0.00,,,0.00,Wunderground v.1.13,2013-01-19 17:27:00,
2013-01-19 12:33:00,37.7,21.6,30.04,SW,223,0.0,6.0,52,0.00,,,0.00,Wunderground v.1.13,2013-01-19 17:33:00,
2013-01-19 12:38:00,37.9,21.8,30.04,East,82,3.0,5.0,52,0.00,,,0.00,Wunderground v.1.13,2013-01-19 17:38:00,
2013-01-19 12:43:00,38.0,22.8,30.04,ESE,107,3.0,3.0,54,0.00,,,0.00,Wunderground v.1.13,2013-01-19 17:43:00,
2013-01-19 12:48:00,38.5,22.8,30.03,SE,127,1.0,3.0,53,0.00,,,0.00,Wunderground v.1.13,2013-01-19 17:48:00,
2013-01-19 12:54:00,38.9,22.3,30.03,WSW,256,4.0,4.0,51,0.00,,,0.00,Wunderground v.1.13,2013-01-19 17:54:00,
2013-01-19 12:59:00,38.9,22.3,30.03,NNE,17,0.0,3.0,51,0.00,,,0.00,Wunderground v.1.13,2013-01-19 17:59:00,
2013-01-19 13:04:00,39.0,22.4,30.03,NE,46,5.0,5.0,51,0.00,,,0.00,Wunderground v.1.13,2013-01-19 18:04:00,
2013-01-19 13:12:00,38.8,22.7,30.03,SE,143,2.0,5.0,52,0.00,,,0.00,Wunderground v.1.13,2013-01-19 18:12:00,
2013-01-19 13:17:00,38.6,22.5,30.02,ENE,66,5.0,6.0,52,0.00,,,0.00,Wunderground v.1.13,2013-01-19 18:17:00,
2013-01-19 13:23:00,38.4,22.3,30.02,North,350,0.0,4.0,52,0.00,,,0.00,Wunderground v.1.13,2013-01-19 18:23:00,
2013-01-19 13:28:00,38.4,22.7,30.02,North,9,2.0,4.0,53,0.00,,,0.00,Wunderground v.1.13,2013-01-19 18:28:00,
2013-01-19 13:33:00,38.7,22.1,30.02,West,277,5.0,6.0,51,0.00,,,0.00,Wunderground v.1.13,2013-01-19 18:33:00,
2013-01-19 13:39:00,39.2,23.0,30.02,West,276,5.0,7.0,52,0.00,,,0.00,Wunderground v.1.13,2013-01-19 18:39:00,
2013-01-19 13:44:00,39.4,22.3,30.02,NW,305,1.0,5.0,50,0.00,,,0.00,Wunderground v.1.13,2013-01-19 18:44:00,
2013-01-19 13:49:00,39.9,23.2,30.02,SSE,159,1.0,2.0,51,0.00,,,0.00,Wunderground v.1.13,2013-01-19 18:49:00,
2013-01-19 13:55:00,40.4,23.2,30.02,South,172,6.0,6.0,50,0.00,,,0.00,Wunderground v.1.13,2013-01-19 18:55:00,
2013-01-19 14:00:00,40.4,23.7,30.02,ESE,117,1.0,2.0,51,0.00,,,0.00,Wunderground v.1.13,2013-01-19 19:00:00,
2013-01-19 14:05:00,40.4,23.2,30.02,North,5,3.0,4.0,50,0.00,,,0.00,Wunderground v.1.13,2013-01-19 19:05:00,
2013-01-19 14:10:00,40.8,24.1,30.02,South,178,1.0,1.0,51,0.00,,,0.00,Wunderground v.1.13,2013-01-19 19:10:00,
2013-01-19 14:16:00,41.3,23.1,30.02,West,281,2.0,6.0,48,0.00,,,0.00,Wunderground v.1.13,2013-01-19 19:16:00,
2013-01-19 14:21:00,41.3,23.1,30.02,WNW,290,0.0,6.0,48,0.00,,,0.00,Wunderground v.1.13,2013-01-19 19:21:00,
2013-01-19 14:27:00,41.2,23.0,30.01,WNW,288,3.0,4.0,48,0.00,,,0.00,Wunderground v.1.13,2013-01-19 19:27:00,
2013-01-19 14:32:00,41.3,23.1,30.01,WNW,286,2.0,5.0,48,0.00,,,0.00,Wunderground v.1.13,2013-01-19 19:32:00,
2013-01-19 14:38:00,41.1,23.9,30.01,West,269,3.0,9.0,50,0.00,,,0.00,Wunderground v.1.13,2013-01-19 19:38:00,
2013-01-19 14:43:00,41.0,23.8,30.01,SSE,156,1.0,3.0,50,0.00,,,0.00,Wunderground v.1.13,2013-01-19 19:43:00,
2013-01-19 14:48:00,40.9,23.2,30.01,South,173,2.0,6.0,49,0.00,,,0.00,Wunderground v.1.13,2013-01-19 19:48:00,
2013-01-19 14:53:00,40.6,22.9,30.01,SW,214,0.0,4.0,49,0.00,,,0.00,Wunderground v.1.13,2013-01-19 19:53:00,
2013-01-19 14:59:00,40.2,24.0,30.01,NE,49,1.0,2.0,52,0.00,,,0.00,Wunderground v.1.13,2013-01-19 19:59:00,
2013-01-19 15:04:00,40.2,23.0,30.01,WNW,284,2.0,2.0,50,0.00,,,0.00,Wunderground v.1.13,2013-01-19 20:04:00,
2013-01-19 15:09:00,40.2,23.5,30.00,ENE,76,0.0,2.0,51,0.00,,,0.00,Wunderground v.1.13,2013-01-19 20:09:00,
2013-01-19 15:18:00,40.0,23.3,30.00,ESE,118,1.0,2.0,51,0.00,,,0.00,Wunderground v.1.13,2013-01-19 20:18:00,
2013-01-19 15:23:00,39.8,23.6,30.00,NNE,21,1.0,2.0,52,0.00,,,0.00,Wunderground v.1.13,2013-01-19 20:23:00,
2013-01-19 15:28:00,39.7,24.0,30.00,SW,217,5.0,8.0,53,0.00,,,0.00,Wunderground v.1.13,2013-01-19 20:28:00,
2013-01-19 15:33:00,39.5,24.2,30.00,WSW,241,0.0,2.0,54,0.00,,,0.00,Wunderground v.1.13,2013-01-19 20:33:00,
2013-01-19 15:39:00,39.6,23.9,30.00,NW,317,3.0,3.0,53,0.00,,,0.00,Wunderground v.1.13,2013-01-19 20:39:00,
2013-01-19 15:44:00,39.6,24.7,30.00,North,5,0.0,2.0,55,0.00,,,0.00,Wunderground v.1.13,2013-01-19 20:44:00,
2013-01-19 15:49:00,39.4,24.1,30.00,SSE,159,1.0,1.0,54,0.00,,,0.00,Wunderground v.1.13,2013-01-19 20:49:00,
2013-01-19 15:54:00,39.5,24.7,30.00,WSW,250,2.0,2.0,55,0.00,,,0.00,Wunderground v.1.13,2013-01-19 20:54:00,
2013-01-19 16:00:00,39.4,24.6,30.00,ESE,117,2.0,2.0,55,0.00,,,0.00,Wunderground v.1.13,2013-01-19 21:00:00,
2013-01-19 16:05:00,39.2,24.4,30.00,WNW,301,0.0,2.0,55,0.00,,,0.00,Wunderground v.1.13,2013-01-19 21:05:00,
2013-01-19 16:10:00,39.1,23.8,30.00,NE,56,0.0,1.0,54,0.00,,,0.00,Wunderground v.1.13,2013-01-19 21:10:00,
2013-01-19 16:16:00,39.0,24.2,30.00,NE,56,0.0,0.0,55,0.00,,,0.00,Wunderground v.1.13,2013-01-19 21:16:00,
2013-01-19 16:22:00,38.9,24.1,30.00,NE,56,0.0,0.0,55,0.00,,,0.00,Wunderground v.1.13,2013-01-19 21:22:00,
2013-01-19 16:27:00,38.8,25.7,30.00,NE,56,0.0,0.0,59,0.00,,,0.00,Wunderground v.1.13,2013-01-19 21:27:00,
2013-01-19 16:32:00,38.6,26.3,30.00,NE,56,1.0,1.0,61,0.00,,,0.00,Wunderground v.1.13,2013-01-19 21:32:00,
2013-01-19 16:39:00,38.0,26.9,30.00,NE,56,0.0,0.0,64,0.00,,,0.00,Wunderground v.1.13,2013-01-19 21:39:00,
2013-01-19 16:44:00,37.5,25.7,30.00,NE,56,0.0,2.0,62,0.00,,,0.00,Wunderground v.1.13,2013-01-19 21:44:00,
2013-01-19 16:49:00,37.5,26.4,30.00,East,99,1.0,2.0,64,0.00,,,0.00,Wunderground v.1.13,2013-01-19 21:49:00,
2013-01-19 16:55:00,37.3,25.1,30.00,East,84,2.0,3.0,61,0.00,,,0.00,Wunderground v.1.13,2013-01-19 21:55:00,
2013-01-19 17:00:00,37.3,24.7,30.00,ESE,108,0.0,1.0,60,0.00,,,0.00,Wunderground v.1.13,2013-01-19 22:00:00,
2013-01-19 17:05:00,37.2,25.8,30.00,ESE,108,0.0,1.0,63,0.00,,,0.00,Wunderground v.1.13,2013-01-19 22:05:00,
2013-01-19 17:11:00,36.7,26.0,30.00,ESE,108,1.0,1.0,65,0.00,,,0.00,Wunderground v.1.13,2013-01-19 22:11:00,
2013-01-19 17:16:00,36.4,26.1,29.99,ESE,108,0.0,0.0,66,0.00,,,0.00,Wunderground v.1.13,2013-01-19 22:16:00,
2013-01-19 17:21:00,36.2,26.3,29.99,ESE,108,0.0,0.0,67,0.00,,,0.00,Wunderground v.1.13,2013-01-19 22:21:00,
2013-01-19 17:26:00,35.9,26.7,30.00,ESE,108,0.0,0.0,69,0.00,,,0.00,Wunderground v.1.13,2013-01-19 22:26:00,
2013-01-19 17:31:00,35.6,26.1,30.00,ESE,108,0.0,0.0,68,0.00,,,0.00,Wunderground v.1.13,2013-01-19 22:31:00,
2013-01-19 17:37:00,35.2,26.7,30.00,ESE,108,0.0,0.0,71,0.00,,,0.00,Wunderground v.1.13,2013-01-19 22:37:00,
2013-01-19 17:42:00,34.9,26.1,29.99,ESE,108,1.0,1.0,70,0.00,,,0.00,Wunderground v.1.13,2013-01-19 22:42:00,
2013-01-19 17:47:00,34.7,26.3,29.99,ESE,108,0.0,2.0,71,0.00,,,0.00,Wunderground v.1.13,2013-01-19 22:47:00,
2013-01-19 17:52:00,34.5,26.1,29.99,ESE,108,0.0,2.0,71,0.00,,,0.00,Wunderground v.1.13,2013-01-19 22:52:00,
2013-01-19 17:59:00,34.3,26.2,29.99,ESE,108,2.0,2.0,72,0.00,,,0.00,Wunderground v.1.13,2013-01-19 22:59:00,
2013-01-19 18:04:00,33.9,26.2,29.99,ESE,109,0.0,2.0,73,0.00,,,0.00,Wunderground v.1.13,2013-01-19 23:04:00,
2013-01-19 18:10:00,33.6,26.2,29.99,ESE,109,0.0,0.0,74,0.00,,,0.00,Wunderground v.1.13,2013-01-19 23:10:00,
2013-01-19 18:17:00,33.4,26.6,29.99,ESE,109,0.0,0.0,76,0.00,,,0.00,Wunderground v.1.13,2013-01-19 23:17:00,
2013-01-19 18:23:00,33.0,25.9,29.99,ESE,109,0.0,1.0,75,0.00,,,0.00,Wunderground v.1.13,2013-01-19 23:23:00,
2013-01-19 18:28:00,32.5,25.8,29.99,ESE,109,0.0,1.0,76,0.00,,,0.00,Wunderground v.1.13,2013-01-19 23:28:00,
2013-01-19 18:33:00,32.2,25.8,29.98,ESE,109,0.0,0.0,77,0.00,,,0.00,Wunderground v.1.13,2013-01-19 23:33:00,
2013-01-19 18:38:00,31.7,25.0,29.98,SW,227,0.0,2.0,76,0.00,,,0.00,Wunderground v.1.13,2013-01-19 23:38:00,
2013-01-19 18:44:00,31.5,25.4,29.99,SW,227,1.0,1.0,78,0.00,,,0.00,Wunderground v.1.13,2013-01-19 23:44:00,
2013-01-19 18:50:00,31.3,25.2,29.98,SW,227,0.0,0.0,78,0.00,,,0.00,Wunderground v.1.13,2013-01-19 23:50:00,
2013-01-19 18:56:00,31.2,25.4,29.99,SW,227,0.0,0.0,79,0.00,,,0.00,Wunderground v.1.13,2013-01-19 23:56:00,
2013-01-19 19:01:00,31.1,25.3,29.98,SW,227,0.0,0.0,79,0.00,,,0.00,Wunderground v.1.13,2013-01-20 00:01:00,
2013-01-19 19:06:00,31.0,24.9,29.99,SW,227,0.0,0.0,78,0.00,,,0.00,Wunderground v.1.13,2013-01-20 00:06:00,
2013-01-19 19:11:00,31.0,25.2,29.98,SW,227,0.0,0.0,79,0.00,,,0.00,Wunderground v.1.13,2013-01-20 00:11:00,
2013-01-19 19:17:00,31.1,25.3,29.98,SW,227,0.0,0.0,79,0.00,,,0.00,Wunderground v.1.13,2013-01-20 00:17:00,
2013-01-19 19:23:00,31.2,25.7,29.98,SW,227,0.0,0.0,80,0.00,,,0.00,Wunderground v.1.13,2013-01-20 00:23:00,
2013-01-19 19:28:00,31.4,25.9,29.98,SW,227,0.0,1.0,80,0.00,,,0.00,Wunderground v.1.13,2013-01-20 00:28:00,
2013-01-19 19:33:00,31.1,25.3,29.98,SW,227,0.0,2.0,79,0.00,,,0.00,Wunderground v.1.13,2013-01-20 00:33:00,
2013-01-19 19:39:00,31.0,25.6,29.98,SW,227,0.0,0.0,80,0.00,,,0.00,Wunderground v.1.13,2013-01-20 00:39:00,
2013-01-19 19:44:00,30.9,25.5,29.98,SW,227,0.0,0.0,80,0.00,,,0.00,Wunderground v.1.13,2013-01-20 00:44:00,
2013-01-19 19:49:00,31.0,25.9,29.98,SW,227,0.0,0.0,81,0.00,,,0.00,Wunderground v.1.13,2013-01-20 00:49:00,
2013-01-19 19:55:00,31.2,26.3,29.97,SW,227,0.0,0.0,82,0.00,,,0.00,Wunderground v.1.13,2013-01-20 00:55:00,
2013-01-19 20:00:00,31.2,26.3,29.97,SW,227,0.0,0.0,82,0.00,,,0.00,Wunderground v.1.13,2013-01-20 01:00:00,
2013-01-19 20:06:00,31.0,25.9,29.97,SW,227,0.0,0.0,81,0.00,,,0.00,Wunderground v.1.13,2013-01-20 01:06:00,
2013-01-19 20:11:00,30.8,25.7,29.97,SW,227,0.0,0.0,81,0.00,,,0.00,Wunderground v.1.13,2013-01-20 01:11:00,
2013-01-19 20:16:00,30.5,25.4,29.97,SW,227,0.0,0.0,81,0.00,,,0.00,Wunderground v.1.13,2013-01-20 01:16:00,
2013-01-19 20:21:00,30.4,25.6,29.96,SW,227,0.0,0.0,82,0.00,,,0.00,Wunderground v.1.13,2013-01-20 01:21:00,
2013-01-19 20:26:00,30.4,25.9,29.96,SW,227,0.0,0.0,83,0.00,,,0.00,Wunderground v.1.13,2013-01-20 01:26:00,
2013-01-19 20:31:00,30.4,25.9,29.96,SW,227,0.0,0.0,83,0.00,,,0.00,Wunderground v.1.13,2013-01-20 01:31:00,
2013-01-19 20:36:00,30.6,26.1,29.96,SW,227,0.0,0.0,83,0.00,,,0.00,Wunderground v.1.13,2013-01-20 01:36:00,
2013-01-19 20:42:00,30.6,26.1,29.95,SW,227,0.0,0.0,83,0.00,,,0.00,Wunderground v.1.13,2013-01-20 01:42:00,
2013-01-19 20:48:00,30.6,26.1,29.95,SW,227,0.0,0.0,83,0.00,,,0.00,Wunderground v.1.13,2013-01-20 01:48:00,
2013-01-19 20:54:00,30.5,26.0,29.94,SW,227,0.0,1.0,83,0.00,,,0.00,Wunderground v.1.13,2013-01-20 01:54:00,
2013-01-19 21:01:00,30.4,25.9,29.94,SW,227,0.0,0.0,83,0.00,,,0.00,Wunderground v.1.13,2013-01-20 02:01:00,
2013-01-19 21:07:00,30.2,25.7,29.94,SW,227,0.0,0.0,83,0.00,,,0.00,Wunderground v.1.13,2013-01-20 02:07:00,
2013-01-19 21:13:00,29.8,25.6,29.93,SW,227,2.0,2.0,84,0.00,,,0.00,Wunderground v.1.13,2013-01-20 02:13:00,
2013-01-19 21:18:00,29.5,25.3,29.93,SW,227,0.0,1.0,84,0.00,,,0.00,Wunderground v.1.13,2013-01-20 02:18:00,
2013-01-19 21:23:00,29.3,25.4,29.93,SW,227,0.0,1.0,85,0.00,,,0.00,Wunderground v.1.13,2013-01-20 02:23:00,
2013-01-19 21:28:00,29.0,25.1,29.92,SSW,200,0.0,0.0,85,0.00,,,0.00,Wunderground v.1.13,2013-01-20 02:28:00,
2013-01-19 21:33:00,28.9,25.0,29.92,SSW,200,0.0,0.0,85,0.00,,,0.00,Wunderground v.1.13,2013-01-20 02:33:00,
2013-01-19 21:38:00,28.8,24.9,29.91,SSW,200,0.0,1.0,85,0.00,,,0.00,Wunderground v.1.13,2013-01-20 02:38:00,
2013-01-19 21:43:00,28.8,24.9,29.91,SSW,200,0.0,2.0,85,0.00,,,0.00,Wunderground v.1.13,2013-01-20 02:43:00,
2013-01-19 21:49:00,28.8,24.9,29.91,SSW,200,0.0,2.0,85,0.00,,,0.00,Wunderground v.1.13,2013-01-20 02:49:00,
2013-01-19 21:54:00,28.7,25.0,29.90,SSW,200,0.0,1.0,86,0.00,,,0.00,Wunderground v.1.13,2013-01-20 02:54:00,
2013-01-19 21:59:00,28.7,25.0,29.90,SSW,200,0.0,0.0,86,0.00,,,0.00,Wunderground v.1.13,2013-01-20 02:59:00,
2013-01-19 22:04:00,28.7,25.0,29.90,SSW,200,2.0,2.0,86,0.00,,,0.00,Wunderground v.1.13,2013-01-20 03:04:00,
2013-01-19 22:09:00,28.8,25.1,29.89,SW,229,0.0,1.0,86,0.00,,,0.00,Wunderground v.1.13,2013-01-20 03:09:00,
2013-01-19 22:14:00,28.9,25.5,29.89,SW,229,0.0,0.0,87,0.00,,,0.00,Wunderground v.1.13,2013-01-20 03:14:00,
2013-01-19 22:19:00,29.1,25.7,29.88,SW,229,0.0,0.0,87,0.00,,,0.00,Wunderground v.1.13,2013-01-20 03:19:00,
2013-01-19 22:25:00,29.4,26.0,29.88,SSW,201,0.0,0.0,87,0.00,,,0.00,Wunderground v.1.13,2013-01-20 03:25:00,
2013-01-19 22:30:00,29.5,25.8,29.88,SSW,201,0.0,1.0,86,0.00,,,0.00,Wunderground v.1.13,2013-01-20 03:30:00,
2013-01-19 22:35:00,29.7,25.7,29.87,SSW,201,0.0,2.0,85,0.00,,,0.00,Wunderground v.1.13,2013-01-20 03:35:00,
2013-01-19 22:41:00,29.8,25.8,29.87,SSW,201,0.0,2.0,85,0.00,,,0.00,Wunderground v.1.13,2013-01-20 03:41:00,
2013-01-19 22:47:00,29.9,25.9,29.87,SSW,201,0.0,1.0,85,0.00,,,0.00,Wunderground v.1.13,2013-01-20 03:47:00,
2013-01-19 22:52:00,30.1,26.1,29.86,SSW,201,0.0,1.0,85,0.00,,,0.00,Wunderground v.1.13,2013-01-20 03:52:00,
2013-01-19 22:57:00,30.3,26.0,29.86,SSW,201,0.0,2.0,84,0.00,,,0.00,Wunderground v.1.13,2013-01-20 03:57:00,
2013-01-19 23:03:00,30.4,26.4,29.85,SSW,201,0.0,1.0,85,0.00,,,0.00,Wunderground v.1.13,2013-01-20 04:03:00,
2013-01-19 23:08:00,30.5,26.2,29.85,SSW,201,0.0,1.0,84,0.00,,,0.00,Wunderground v.1.13,2013-01-20 04:08:00,
2013-01-19 23:13:00,30.6,26.3,29.84,SSW,201,2.0,2.0,84,0.00,,,0.00,Wunderground v.1.13,2013-01-20 04:13:00,
2013-01-19 23:20:00,30.7,26.4,29.84,SE,130,0.0,2.0,84,0.00,,,0.00,Wunderground v.1.13,2013-01-20 04:20:00,
2013-01-19 23:25:00,30.8,26.8,29.84,SE,140,0.0,1.0,85,0.00,,,0.00,Wunderground v.1.13,2013-01-20 04:25:00,
2013-01-19 23:30:00,31.0,27.0,29.83,East,86,2.0,2.0,85,0.00,,,0.00,Wunderground v.1.13,2013-01-20 04:30:00,
2013-01-19 23:36:00,31.2,26.6,29.83,West,278,0.0,2.0,83,0.00,,,0.00,Wunderground v.1.13,2013-01-20 04:36:00,
2013-01-19 23:41:00,31.4,26.8,29.83,NW,309,0.0,2.0,83,0.00,,,0.00,Wunderground v.1.13,2013-01-20 04:41:00,
2013-01-19 23:47:00,31.7,27.1,29.82,NW,309,1.0,1.0,83,0.00,,,0.00,Wunderground v.1.13,2013-01-20 04:47:00,
2013-01-19 23:53:00,32.0,27.1,29.82,NE,39,3.0,3.0,82,0.00,,,0.00,Wunderground v.1.13,2013-01-20 04:53:00,
2013-01-19 23:58:00,32.4,27.5,29.82,WSW,240,0.0,1.0,82,0.00,,,0.00,Wunderground v.1.13,2013-01-20 04:58:00,